Hlavní strana
METAR-TAF:

METAR-TAF

Letiště :

Newark-Heath Airport

Newark, Ohio, Spojené státy americké

zeměpisná šířka: 40-01-22N, zeměpisná délka: 082-27-45W, výška: 269 m

Aktuální stav počasí

Zpráva byla vytvořena před 14 minutami, v 00:33 UTC
Bezvětří
Teplota 7°C
Vlhkost vzduchu 81%
Tlak 1010 hPa
Viditelnost: 4.0 km
Zataženo ve výšce 500 ft
slabý déšť, kouřmo

METAR: KVTA 260033Z AUTO 00000KT 2 1/2SM -RA BR OVC005 07/04 A2983 RMK AO2 RAB08E19B29 CIG 004V008 P0001 T00670044

Čas: 19:47 (00:47 UTC)


TAF: chybějící

Stav a předpovědi počasí z více než 4 000 letišť (zprávy METAR a TAF).

Červené a žluté tečky na mapě představují dostupné meteorologické stanice.

Když kurzor umístíte na tečku, zobrazí se název stanice.

Pak kliknutím zobrazíte stav a předpověď počasí.

Chcete-li změnit mapu, kliknutím na zelené tlačítko se znaménkem +mapu přiblížíte, kliknutím na zelené tlačítko se znaménkem – mapu oddálíte a kliknutím na zelené šipky přejdete na sousední mapy.


METAR-TAF: